sensor_id;sensor_type;location;lat;lon;timestamp;P1;durP1;ratioP1;P2;durP2;ratioP2
12848;SDS011;6493;50.928;7.172;2023-04-28T00:01:07;2.63;;;1.80;;
12848;SDS011;6493;50.928;7.172;2023-04-28T00:06:10;2.47;;;1.80;;
12848;SDS011;6493;50.928;7.172;2023-04-28T00:11:15;1.90;;;1.57;;
12848;SDS011;6493;50.928;7.172;2023-04-28T00:16:19;2.77;;;1.60;;
12848;SDS011;6493;50.928;7.172;2023-04-28T00:21:23;2.33;;;1.27;;
12848;SDS011;6493;50.928;7.172;2023-04-28T00:26:28;1.20;;;1.00;;
12848;SDS011;6493;50.928;7.172;2023-04-28T00:31:31;1.97;;;1.77;;
12848;SDS011;6493;50.928;7.172;2023-04-28T00:36:36;3.17;;;1.50;;
12848;SDS011;6493;50.928;7.172;2023-04-28T00:41:41;2.13;;;1.40;;
12848;SDS011;6493;50.928;7.172;2023-04-28T00:46:45;4.07;;;1.90;;
12848;SDS011;6493;50.928;7.172;2023-04-28T00:51:48;1.80;;;1.20;;
12848;SDS011;6493;50.928;7.172;2023-04-28T00:56:53;1.40;;;1.30;;
12848;SDS011;6493;50.928;7.172;2023-04-28T01:01:58;2.17;;;1.30;;
12848;SDS011;6493;50.928;7.172;2023-04-28T01:07:02;2.63;;;1.60;;
12848;SDS011;6493;50.928;7.172;2023-04-28T01:12:08;2.60;;;1.53;;
12848;SDS011;6493;50.928;7.172;2023-04-28T01:17:16;2.37;;;1.40;;
12848;SDS011;6493;50.928;7.172;2023-04-28T01:22:20;1.87;;;1.67;;
12848;SDS011;6493;50.928;7.172;2023-04-28T01:27:26;1.50;;;1.13;;
12848;SDS011;6493;50.928;7.172;2023-04-28T01:32:30;2.03;;;1.27;;
12848;SDS011;6493;50.928;7.172;2023-04-28T01:37:34;2.53;;;1.20;;
12848;SDS011;6493;50.928;7.172;2023-04-28T01:42:38;2.30;;;1.57;;
12848;SDS011;6493;50.928;7.172;2023-04-28T01:47:42;1.60;;;1.13;;
12848;SDS011;6493;50.928;7.172;2023-04-28T01:52:47;1.73;;;0.90;;
12848;SDS011;6493;50.928;7.172;2023-04-28T01:57:52;1.60;;;1.03;;
12848;SDS011;6493;50.928;7.172;2023-04-28T02:02:55;1.63;;;0.80;;
12848;SDS011;6493;50.928;7.172;2023-04-28T02:07:59;1.93;;;1.43;;
12848;SDS011;6493;50.928;7.172;2023-04-28T02:13:05;1.00;;;0.90;;
12848;SDS011;6493;50.928;7.172;2023-04-28T02:18:09;2.53;;;0.80;;
12848;SDS011;6493;50.928;7.172;2023-04-28T02:23:15;1.20;;;0.90;;
12848;SDS011;6493;50.928;7.172;2023-04-28T02:28:20;1.53;;;0.90;;
12848;SDS011;6493;50.928;7.172;2023-04-28T02:33:23;1.17;;;0.80;;
12848;SDS011;6493;50.928;7.172;2023-04-28T02:38:27;1.77;;;1.20;;
12848;SDS011;6493;50.928;7.172;2023-04-28T02:43:33;1.47;;;0.93;;
12848;SDS011;6493;50.928;7.172;2023-04-28T02:48:37;1.73;;;1.00;;
12848;SDS011;6493;50.928;7.172;2023-04-28T02:53:42;1.43;;;1.03;;
12848;SDS011;6493;50.928;7.172;2023-04-28T02:58:47;2.70;;;1.30;;
12848;SDS011;6493;50.928;7.172;2023-04-28T03:03:50;2.30;;;1.57;;
12848;SDS011;6493;50.928;7.172;2023-04-28T03:08:54;2.50;;;1.20;;
12848;SDS011;6493;50.928;7.172;2023-04-28T03:13:59;2.00;;;1.20;;
12848;SDS011;6493;50.928;7.172;2023-04-28T03:19:03;2.20;;;1.60;;
12848;SDS011;6493;50.928;7.172;2023-04-28T03:24:07;1.70;;;1.10;;
12848;SDS011;6493;50.928;7.172;2023-04-28T03:29:12;1.77;;;1.30;;
12848;SDS011;6493;50.928;7.172;2023-04-28T03:34:15;2.17;;;1.70;;
12848;SDS011;6493;50.928;7.172;2023-04-28T03:39:20;3.00;;;1.70;;
12848;SDS011;6493;50.928;7.172;2023-04-28T03:44:25;1.37;;;1.27;;
12848;SDS011;6493;50.928;7.172;2023-04-28T03:49:29;2.30;;;1.40;;
12848;SDS011;6493;50.928;7.172;2023-04-28T03:54:33;2.20;;;1.50;;
12848;SDS011;6493;50.928;7.172;2023-04-28T03:59:38;3.13;;;1.60;;
12848;SDS011;6493;50.928;7.172;2023-04-28T04:04:44;3.00;;;1.70;;
12848;SDS011;6493;50.928;7.172;2023-04-28T04:09:48;2.90;;;1.60;;
12848;SDS011;6493;50.928;7.172;2023-04-28T04:14:53;2.00;;;1.50;;
12848;SDS011;6493;50.928;7.172;2023-04-28T04:19:57;3.07;;;1.50;;
12848;SDS011;6493;50.928;7.172;2023-04-28T04:25:01;2.80;;;1.30;;
12848;SDS011;6493;50.928;7.172;2023-04-28T04:30:06;3.77;;;2.03;;
12848;SDS011;6493;50.928;7.172;2023-04-28T04:35:11;2.00;;;1.67;;
12848;SDS011;6493;50.928;7.172;2023-04-28T04:40:15;1.63;;;1.50;;
12848;SDS011;6493;50.928;7.172;2023-04-28T04:45:24;1.37;;;1.27;;
12848;SDS011;6493;50.928;7.172;2023-04-28T04:50:28;1.30;;;1.20;;
12848;SDS011;6493;50.928;7.172;2023-04-28T04:55:32;2.73;;;1.70;;
12848;SDS011;6493;50.928;7.172;2023-04-28T05:00:38;1.67;;;1.43;;
12848;SDS011;6493;50.928;7.172;2023-04-28T05:05:43;2.33;;;1.60;;
12848;SDS011;6493;50.928;7.172;2023-04-28T05:10:53;3.57;;;2.10;;
12848;SDS011;6493;50.928;7.172;2023-04-28T05:15:59;2.97;;;1.73;;
12848;SDS011;6493;50.928;7.172;2023-04-28T05:21:09;2.23;;;1.83;;
12848;SDS011;6493;50.928;7.172;2023-04-28T05:26:13;3.63;;;1.90;;
12848;SDS011;6493;50.928;7.172;2023-04-28T05:31:19;2.20;;;2.00;;
12848;SDS011;6493;50.928;7.172;2023-04-28T05:36:23;4.00;;;2.13;;
12848;SDS011;6493;50.928;7.172;2023-04-28T05:41:27;3.03;;;2.07;;
12848;SDS011;6493;50.928;7.172;2023-04-28T05:46:32;2.53;;;2.00;;
12848;SDS011;6493;50.928;7.172;2023-04-28T05:51:37;2.17;;;1.97;;
12848;SDS011;6493;50.928;7.172;2023-04-28T05:56:41;6.70;;;2.10;;
12848;SDS011;6493;50.928;7.172;2023-04-28T06:01:46;3.33;;;2.13;;
12848;SDS011;6493;50.928;7.172;2023-04-28T06:06:51;3.80;;;2.83;;
12848;SDS011;6493;50.928;7.172;2023-04-28T06:11:55;2.57;;;2.27;;
12848;SDS011;6493;50.928;7.172;2023-04-28T06:17:01;1.70;;;1.60;;
12848;SDS011;6493;50.928;7.172;2023-04-28T06:22:05;2.20;;;2.00;;
12848;SDS011;6493;50.928;7.172;2023-04-28T06:27:09;2.70;;;2.13;;
12848;SDS011;6493;50.928;7.172;2023-04-28T06:32:15;3.17;;;2.43;;
12848;SDS011;6493;50.928;7.172;2023-04-28T06:37:18;2.40;;;2.20;;
12848;SDS011;6493;50.928;7.172;2023-04-28T06:42:22;2.57;;;1.93;;
12848;SDS011;6493;50.928;7.172;2023-04-28T06:47:35;2.33;;;1.83;;
12848;SDS011;6493;50.928;7.172;2023-04-28T06:52:43;2.67;;;2.30;;
12848;SDS011;6493;50.928;7.172;2023-04-28T06:57:46;1.70;;;1.60;;
12848;SDS011;6493;50.928;7.172;2023-04-28T07:02:52;3.37;;;2.43;;
12848;SDS011;6493;50.928;7.172;2023-04-28T07:07:56;3.80;;;2.17;;
12848;SDS011;6493;50.928;7.172;2023-04-28T07:12:59;2.20;;;1.87;;
12848;SDS011;6493;50.928;7.172;2023-04-28T07:18:04;2.40;;;1.90;;
12848;SDS011;6493;50.928;7.172;2023-04-28T07:23:08;3.63;;;2.60;;
12848;SDS011;6493;50.928;7.172;2023-04-28T07:28:12;3.87;;;2.20;;
12848;SDS011;6493;50.928;7.172;2023-04-28T07:33:17;3.23;;;2.27;;
12848;SDS011;6493;50.928;7.172;2023-04-28T07:38:20;3.00;;;1.80;;
12848;SDS011;6493;50.928;7.172;2023-04-28T07:43:24;3.53;;;2.77;;
12848;SDS011;6493;50.928;7.172;2023-04-28T07:48:29;2.23;;;2.03;;
12848;SDS011;6493;50.928;7.172;2023-04-28T07:53:33;1.57;;;1.43;;
12848;SDS011;6493;50.928;7.172;2023-04-28T07:58:37;2.57;;;1.80;;
12848;SDS011;6493;50.928;7.172;2023-04-28T08:03:43;2.47;;;1.50;;
12848;SDS011;6493;50.928;7.172;2023-04-28T08:08:47;3.27;;;2.47;;
12848;SDS011;6493;50.928;7.172;2023-04-28T08:13:50;4.57;;;2.50;;
12848;SDS011;6493;50.928;7.172;2023-04-28T08:18:56;5.67;;;2.03;;
12848;SDS011;6493;50.928;7.172;2023-04-28T08:24:00;2.17;;;1.57;;
12848;SDS011;6493;50.928;7.172;2023-04-28T08:29:04;2.67;;;1.70;;
12848;SDS011;6493;50.928;7.172;2023-04-28T08:34:09;3.03;;;1.80;;
12848;SDS011;6493;50.928;7.172;2023-04-28T08:39:15;2.07;;;1.83;;
12848;SDS011;6493;50.928;7.172;2023-04-28T08:44:20;2.10;;;1.90;;
12848;SDS011;6493;50.928;7.172;2023-04-28T08:49:26;2.33;;;1.83;;
12848;SDS011;6493;50.928;7.172;2023-04-28T08:54:38;2.70;;;2.10;;
12848;SDS011;6493;50.928;7.172;2023-04-28T08:59:42;2.30;;;1.57;;
12848;SDS011;6493;50.928;7.172;2023-04-28T09:04:47;3.00;;;2.10;;
12848;SDS011;6493;50.928;7.172;2023-04-28T09:10:01;1.87;;;1.53;;
12848;SDS011;6493;50.928;7.172;2023-04-28T09:15:25;3.30;;;2.10;;
12848;SDS011;6493;50.928;7.172;2023-04-28T09:20:34;1.73;;;1.63;;
12848;SDS011;6493;50.928;7.172;2023-04-28T09:25:39;1.93;;;1.77;;
12848;SDS011;6493;50.928;7.172;2023-04-28T09:30:42;1.63;;;1.50;;
12848;SDS011;6493;50.928;7.172;2023-04-28T09:35:47;2.10;;;1.90;;
12848;SDS011;6493;50.928;7.172;2023-04-28T09:40:52;2.30;;;1.07;;
12848;SDS011;6493;50.928;7.172;2023-04-28T09:46:00;1.20;;;1.10;;
12848;SDS011;6493;50.928;7.172;2023-04-28T09:51:07;1.97;;;1.70;;
12848;SDS011;6493;50.928;7.172;2023-04-28T09:56:13;2.53;;;1.77;;
12848;SDS011;6493;50.928;7.172;2023-04-28T10:01:20;1.50;;;1.40;;
12848;SDS011;6493;50.928;7.172;2023-04-28T10:06:25;2.23;;;1.43;;
12848;SDS011;6493;50.928;7.172;2023-04-28T10:11:30;1.30;;;0.93;;
12848;SDS011;6493;50.928;7.172;2023-04-28T10:16:35;2.10;;;1.40;;
12848;SDS011;6493;50.928;7.172;2023-04-28T10:21:51;1.60;;;0.93;;
12848;SDS011;6493;50.928;7.172;2023-04-28T10:27:06;1.13;;;1.07;;
12848;SDS011;6493;50.928;7.172;2023-04-28T10:32:14;1.50;;;1.27;;
12848;SDS011;6493;50.928;7.172;2023-04-28T10:43:07;1.50;;;1.40;;
12848;SDS011;6493;50.928;7.172;2023-04-28T10:48:12;1.30;;;1.10;;
12848;SDS011;6493;50.928;7.172;2023-04-28T10:53:17;1.30;;;1.10;;
12848;SDS011;6493;50.928;7.172;2023-04-28T10:58:30;1.60;;;1.13;;
12848;SDS011;6493;50.928;7.172;2023-04-28T11:03:44;1.40;;;1.30;;
12848;SDS011;6493;50.928;7.172;2023-04-28T11:08:54;1.67;;;1.33;;
12848;SDS011;6493;50.928;7.172;2023-04-28T11:19:36;2.53;;;1.40;;
12848;SDS011;6493;50.928;7.172;2023-04-28T11:24:42;1.03;;;1.03;;
12848;SDS011;6493;50.928;7.172;2023-04-28T11:29:58;0.90;;;0.90;;
12848;SDS011;6493;50.928;7.172;2023-04-28T11:35:02;1.30;;;1.20;;
12848;SDS011;6493;50.928;7.172;2023-04-28T11:40:12;1.07;;;0.97;;
12848;SDS011;6493;50.928;7.172;2023-04-28T11:45:16;0.90;;;0.90;;
12848;SDS011;6493;50.928;7.172;2023-04-28T11:50:34;3.20;;;2.40;;
12848;SDS011;6493;50.928;7.172;2023-04-28T11:55:39;1.90;;;1.70;;
12848;SDS011;6493;50.928;7.172;2023-04-28T12:00:43;2.07;;;1.83;;
12848;SDS011;6493;50.928;7.172;2023-04-28T12:05:46;1.10;;;1.00;;
12848;SDS011;6493;50.928;7.172;2023-04-28T12:16:11;1.87;;;0.70;;
12848;SDS011;6493;50.928;7.172;2023-04-28T12:21:19;0.50;;;0.50;;
12848;SDS011;6493;50.928;7.172;2023-04-28T12:26:25;0.80;;;0.80;;
12848;SDS011;6493;50.928;7.172;2023-04-28T12:31:28;0.80;;;0.67;;
12848;SDS011;6493;50.928;7.172;2023-04-28T12:36:33;1.50;;;1.00;;
12848;SDS011;6493;50.928;7.172;2023-04-28T12:41:38;1.00;;;1.00;;
12848;SDS011;6493;50.928;7.172;2023-04-28T12:46:41;0.80;;;0.80;;
12848;SDS011;6493;50.928;7.172;2023-04-28T12:51:45;0.87;;;0.87;;
12848;SDS011;6493;50.928;7.172;2023-04-28T12:56:50;0.90;;;0.90;;
12848;SDS011;6493;50.928;7.172;2023-04-28T13:01:55;1.63;;;1.30;;
12848;SDS011;6493;50.928;7.172;2023-04-28T13:06:59;0.90;;;0.90;;
12848;SDS011;6493;50.928;7.172;2023-04-28T13:12:04;0.87;;;0.87;;
12848;SDS011;6493;50.928;7.172;2023-04-28T13:17:09;0.80;;;0.80;;
12848;SDS011;6493;50.928;7.172;2023-04-28T13:22:13;0.90;;;0.90;;
12848;SDS011;6493;50.928;7.172;2023-04-28T13:27:19;0.70;;;0.70;;
12848;SDS011;6493;50.928;7.172;2023-04-28T13:32:24;0.50;;;0.50;;
12848;SDS011;6493;50.928;7.172;2023-04-28T13:37:29;0.57;;;0.57;;
12848;SDS011;6493;50.928;7.172;2023-04-28T13:42:35;0.60;;;0.60;;
12848;SDS011;6493;50.928;7.172;2023-04-28T13:47:38;0.60;;;0.60;;
12848;SDS011;6493;50.928;7.172;2023-04-28T13:52:42;0.77;;;0.77;;
12848;SDS011;6493;50.928;7.172;2023-04-28T13:57:47;0.50;;;0.50;;
12848;SDS011;6493;50.928;7.172;2023-04-28T14:02:50;0.70;;;0.70;;
12848;SDS011;6493;50.928;7.172;2023-04-28T14:07:55;0.80;;;0.70;;
12848;SDS011;6493;50.928;7.172;2023-04-28T14:13:00;0.67;;;0.67;;
12848;SDS011;6493;50.928;7.172;2023-04-28T14:18:03;0.60;;;0.60;;
12848;SDS011;6493;50.928;7.172;2023-04-28T14:23:08;1.07;;;0.70;;
12848;SDS011;6493;50.928;7.172;2023-04-28T14:28:13;0.70;;;0.70;;
12848;SDS011;6493;50.928;7.172;2023-04-28T14:33:17;0.90;;;0.70;;
12848;SDS011;6493;50.928;7.172;2023-04-28T14:38:20;0.60;;;0.60;;
12848;SDS011;6493;50.928;7.172;2023-04-28T14:43:25;0.63;;;0.63;;
12848;SDS011;6493;50.928;7.172;2023-04-28T14:48:30;0.50;;;0.50;;
12848;SDS011;6493;50.928;7.172;2023-04-28T14:53:34;0.70;;;0.70;;
12848;SDS011;6493;50.928;7.172;2023-04-28T14:58:39;0.60;;;0.60;;
12848;SDS011;6493;50.928;7.172;2023-04-28T15:03:43;0.70;;;0.70;;
12848;SDS011;6493;50.928;7.172;2023-04-28T15:08:47;0.60;;;0.60;;
12848;SDS011;6493;50.928;7.172;2023-04-28T15:13:52;0.60;;;0.60;;
12848;SDS011;6493;50.928;7.172;2023-04-28T15:18:55;0.87;;;0.70;;
12848;SDS011;6493;50.928;7.172;2023-04-28T15:23:59;0.50;;;0.50;;
12848;SDS011;6493;50.928;7.172;2023-04-28T15:29:04;0.47;;;0.47;;
12848;SDS011;6493;50.928;7.172;2023-04-28T15:34:08;0.40;;;0.40;;
12848;SDS011;6493;50.928;7.172;2023-04-28T15:39:12;0.67;;;0.40;;
12848;SDS011;6493;50.928;7.172;2023-04-28T15:44:18;0.43;;;0.43;;
12848;SDS011;6493;50.928;7.172;2023-04-28T15:49:21;0.50;;;0.50;;
12848;SDS011;6493;50.928;7.172;2023-04-28T15:54:27;0.63;;;0.50;;
12848;SDS011;6493;50.928;7.172;2023-04-28T15:59:32;0.90;;;0.57;;
12848;SDS011;6493;50.928;7.172;2023-04-28T16:04:36;0.87;;;0.57;;
12848;SDS011;6493;50.928;7.172;2023-04-28T16:09:40;0.83;;;0.60;;
12848;SDS011;6493;50.928;7.172;2023-04-28T16:14:46;1.23;;;0.70;;
12848;SDS011;6493;50.928;7.172;2023-04-28T16:19:50;1.13;;;0.80;;
12848;SDS011;6493;50.928;7.172;2023-04-28T16:24:55;1.77;;;0.80;;
12848;SDS011;6493;50.928;7.172;2023-04-28T16:30:03;2.07;;;0.63;;
12848;SDS011;6493;50.928;7.172;2023-04-28T16:35:08;1.20;;;1.10;;
12848;SDS011;6493;50.928;7.172;2023-04-28T16:40:16;1.03;;;0.63;;
12848;SDS011;6493;50.928;7.172;2023-04-28T16:45:21;1.43;;;0.70;;
12848;SDS011;6493;50.928;7.172;2023-04-28T16:50:25;0.70;;;0.70;;
12848;SDS011;6493;50.928;7.172;2023-04-28T16:55:29;0.70;;;0.70;;
12848;SDS011;6493;50.928;7.172;2023-04-28T17:00:33;0.60;;;0.60;;
12848;SDS011;6493;50.928;7.172;2023-04-28T17:05:37;0.53;;;0.53;;
12848;SDS011;6493;50.928;7.172;2023-04-28T17:10:41;0.77;;;0.70;;
12848;SDS011;6493;50.928;7.172;2023-04-28T17:15:51;0.87;;;0.40;;
12848;SDS011;6493;50.928;7.172;2023-04-28T17:20:55;0.50;;;0.50;;
12848;SDS011;6493;50.928;7.172;2023-04-28T17:25:59;0.60;;;0.37;;
12848;SDS011;6493;50.928;7.172;2023-04-28T17:31:05;0.37;;;0.37;;
12848;SDS011;6493;50.928;7.172;2023-04-28T17:36:09;0.53;;;0.40;;
12848;SDS011;6493;50.928;7.172;2023-04-28T17:41:12;0.30;;;0.30;;
12848;SDS011;6493;50.928;7.172;2023-04-28T17:46:19;0.27;;;0.27;;
12848;SDS011;6493;50.928;7.172;2023-04-28T17:51:23;0.83;;;0.30;;
12848;SDS011;6493;50.928;7.172;2023-04-28T17:56:28;0.40;;;0.40;;
12848;SDS011;6493;50.928;7.172;2023-04-28T18:01:33;0.50;;;0.43;;
12848;SDS011;6493;50.928;7.172;2023-04-28T18:06:38;0.30;;;0.30;;
12848;SDS011;6493;50.928;7.172;2023-04-28T18:11:41;0.40;;;0.40;;
12848;SDS011;6493;50.928;7.172;2023-04-28T18:16:46;0.40;;;0.40;;
12848;SDS011;6493;50.928;7.172;2023-04-28T18:21:50;0.40;;;0.40;;
12848;SDS011;6493;50.928;7.172;2023-04-28T18:26:55;0.40;;;0.40;;
12848;SDS011;6493;50.928;7.172;2023-04-28T18:32:00;0.20;;;0.20;;
12848;SDS011;6493;50.928;7.172;2023-04-28T18:37:04;0.40;;;0.33;;
12848;SDS011;6493;50.928;7.172;2023-04-28T18:42:08;0.60;;;0.37;;
12848;SDS011;6493;50.928;7.172;2023-04-28T18:47:13;0.40;;;0.40;;
12848;SDS011;6493;50.928;7.172;2023-04-28T18:52:17;0.30;;;0.30;;
12848;SDS011;6493;50.928;7.172;2023-04-28T18:57:21;0.30;;;0.30;;
12848;SDS011;6493;50.928;7.172;2023-04-28T19:02:26;0.30;;;0.30;;
12848;SDS011;6493;50.928;7.172;2023-04-28T19:07:30;0.27;;;0.27;;
12848;SDS011;6493;50.928;7.172;2023-04-28T19:12:33;0.30;;;0.30;;
12848;SDS011;6493;50.928;7.172;2023-04-28T19:17:39;0.30;;;0.30;;
12848;SDS011;6493;50.928;7.172;2023-04-28T19:22:43;2.00;;;0.40;;
12848;SDS011;6493;50.928;7.172;2023-04-28T19:27:48;0.30;;;0.30;;
12848;SDS011;6493;50.928;7.172;2023-04-28T19:32:53;0.60;;;0.60;;
12848;SDS011;6493;50.928;7.172;2023-04-28T19:37:57;0.40;;;0.40;;
12848;SDS011;6493;50.928;7.172;2023-04-28T19:43:00;1.63;;;0.60;;
12848;SDS011;6493;50.928;7.172;2023-04-28T19:48:06;0.50;;;0.50;;
12848;SDS011;6493;50.928;7.172;2023-04-28T19:53:10;0.40;;;0.40;;
12848;SDS011;6493;50.928;7.172;2023-04-28T19:58:14;0.33;;;0.33;;
12848;SDS011;6493;50.928;7.172;2023-04-28T20:03:19;0.30;;;0.30;;
12848;SDS011;6493;50.928;7.172;2023-04-28T20:08:23;0.30;;;0.30;;
12848;SDS011;6493;50.928;7.172;2023-04-28T20:13:28;0.40;;;0.40;;
12848;SDS011;6493;50.928;7.172;2023-04-28T20:18:33;0.50;;;0.40;;
12848;SDS011;6493;50.928;7.172;2023-04-28T20:23:37;0.63;;;0.60;;
12848;SDS011;6493;50.928;7.172;2023-04-28T20:28:42;0.30;;;0.30;;
12848;SDS011;6493;50.928;7.172;2023-04-28T20:33:48;0.40;;;0.30;;
12848;SDS011;6493;50.928;7.172;2023-04-28T20:38:52;0.50;;;0.50;;
12848;SDS011;6493;50.928;7.172;2023-04-28T20:43:58;0.43;;;0.43;;
12848;SDS011;6493;50.928;7.172;2023-04-28T20:49:04;0.30;;;0.30;;
12848;SDS011;6493;50.928;7.172;2023-04-28T20:54:08;0.60;;;0.60;;
12848;SDS011;6493;50.928;7.172;2023-04-28T20:59:12;0.50;;;0.50;;
12848;SDS011;6493;50.928;7.172;2023-04-28T21:04:17;0.47;;;0.47;;
12848;SDS011;6493;50.928;7.172;2023-04-28T21:09:21;0.70;;;0.70;;
12848;SDS011;6493;50.928;7.172;2023-04-28T21:14:25;2.10;;;1.57;;
12848;SDS011;6493;50.928;7.172;2023-04-28T21:19:31;1.30;;;0.80;;
12848;SDS011;6493;50.928;7.172;2023-04-28T21:24:35;0.60;;;0.50;;
12848;SDS011;6493;50.928;7.172;2023-04-28T21:29:39;0.60;;;0.50;;
12848;SDS011;6493;50.928;7.172;2023-04-28T21:34:46;0.50;;;0.40;;
12848;SDS011;6493;50.928;7.172;2023-04-28T21:39:50;0.30;;;0.30;;
12848;SDS011;6493;50.928;7.172;2023-04-28T21:44:54;0.70;;;0.70;;
12848;SDS011;6493;50.928;7.172;2023-04-28T21:49:59;0.30;;;0.30;;
12848;SDS011;6493;50.928;7.172;2023-04-28T21:55:04;0.30;;;0.30;;
12848;SDS011;6493;50.928;7.172;2023-04-28T22:00:09;0.53;;;0.53;;
12848;SDS011;6493;50.928;7.172;2023-04-28T22:05:17;0.40;;;0.40;;
12848;SDS011;6493;50.928;7.172;2023-04-28T22:10:21;0.47;;;0.47;;
12848;SDS011;6493;50.928;7.172;2023-04-28T22:15:25;0.37;;;0.37;;
12848;SDS011;6493;50.928;7.172;2023-04-28T22:20:30;0.30;;;0.30;;
12848;SDS011;6493;50.928;7.172;2023-04-28T22:25:34;0.30;;;0.30;;
12848;SDS011;6493;50.928;7.172;2023-04-28T22:30:37;0.60;;;0.50;;
12848;SDS011;6493;50.928;7.172;2023-04-28T22:35:42;0.70;;;0.30;;
12848;SDS011;6493;50.928;7.172;2023-04-28T22:40:46;0.40;;;0.30;;
12848;SDS011;6493;50.928;7.172;2023-04-28T22:45:50;0.77;;;0.60;;
12848;SDS011;6493;50.928;7.172;2023-04-28T22:50:55;0.40;;;0.40;;
12848;SDS011;6493;50.928;7.172;2023-04-28T22:55:59;0.50;;;0.50;;
12848;SDS011;6493;50.928;7.172;2023-04-28T23:01:03;0.50;;;0.50;;
12848;SDS011;6493;50.928;7.172;2023-04-28T23:06:08;0.50;;;0.50;;
12848;SDS011;6493;50.928;7.172;2023-04-28T23:11:12;0.90;;;0.90;;
12848;SDS011;6493;50.928;7.172;2023-04-28T23:16:16;1.20;;;0.93;;
12848;SDS011;6493;50.928;7.172;2023-04-28T23:21:21;1.20;;;0.70;;
12848;SDS011;6493;50.928;7.172;2023-04-28T23:26:24;0.73;;;0.73;;
12848;SDS011;6493;50.928;7.172;2023-04-28T23:31:28;1.00;;;1.00;;
12848;SDS011;6493;50.928;7.172;2023-04-28T23:36:33;1.20;;;1.10;;
12848;SDS011;6493;50.928;7.172;2023-04-28T23:41:37;1.30;;;1.20;;
12848;SDS011;6493;50.928;7.172;2023-04-28T23:46:41;1.40;;;1.30;;
12848;SDS011;6493;50.928;7.172;2023-04-28T23:51:46;1.50;;;1.40;;
12848;SDS011;6493;50.928;7.172;2023-04-28T23:56:50;1.70;;;1.60;;
